sensor_id;sensor_type;location;lat;lon;timestamp;P1;durP1;ratioP1;P2;durP2;ratioP2
10703;SDS011;5403;41.730;13.142;2022-11-20T11:19:12;12.65;;;9.55;;
10703;SDS011;5403;41.730;13.142;2022-11-20T11:21:45;7.50;;;6.88;;
10703;SDS011;5403;41.730;13.142;2022-11-20T11:24:18;11.13;;;7.65;;
10703;SDS011;5403;41.730;13.142;2022-11-20T12:01:44;7.07;;;6.38;;
10703;SDS011;5403;41.730;13.142;2022-11-20T12:04:20;8.40;;;6.85;;
10703;SDS011;5403;41.730;13.142;2022-11-20T12:11:37;10.77;;;7.22;;
10703;SDS011;5403;41.730;13.142;2022-11-20T12:14:11;8.20;;;6.97;;
10703;SDS011;5403;41.730;13.142;2022-11-20T12:28:21;11.10;;;9.93;;
10703;SDS011;5403;41.730;13.142;2022-11-20T12:33:50;10.27;;;8.65;;
10703;SDS011;5403;41.730;13.142;2022-11-20T12:36:35;11.30;;;8.38;;
10703;SDS011;5403;41.730;13.142;2022-11-20T12:44:16;5.93;;;5.32;;
10703;SDS011;5403;41.730;13.142;2022-11-20T12:47:14;6.25;;;4.60;;
10703;SDS011;5403;41.730;13.142;2022-11-20T12:49:53;6.15;;;4.47;;
10703;SDS011;5403;41.730;13.142;2022-11-20T12:52:34;5.78;;;4.47;;
10703;SDS011;5403;41.730;13.142;2022-11-20T12:55:24;7.35;;;4.28;;
10703;SDS011;5403;41.730;13.142;2022-11-20T12:58:01;7.65;;;5.50;;
10703;SDS011;5403;41.730;13.142;2022-11-20T13:10:42;2.97;;;2.30;;
10703;SDS011;5403;41.730;13.142;2022-11-20T13:13:22;3.03;;;2.40;;
10703;SDS011;5403;41.730;13.142;2022-11-20T13:15:55;5.43;;;4.30;;
10703;SDS011;5403;41.730;13.142;2022-11-20T13:18:30;3.47;;;2.50;;
10703;SDS011;5403;41.730;13.142;2022-11-20T13:21:17;3.22;;;2.50;;
10703;SDS011;5403;41.730;13.142;2022-11-20T13:23:46;5.47;;;3.40;;
10703;SDS011;5403;41.730;13.142;2022-11-20T13:26:22;3.63;;;2.80;;
10703;SDS011;5403;41.730;13.142;2022-11-20T13:28:59;3.08;;;2.05;;
10703;SDS011;5403;41.730;13.142;2022-11-20T13:31:32;3.90;;;2.25;;
10703;SDS011;5403;41.730;13.142;2022-11-20T13:34:03;3.50;;;2.08;;
10703;SDS011;5403;41.730;13.142;2022-11-20T13:36:33;2.95;;;1.80;;
10703;SDS011;5403;41.730;13.142;2022-11-20T13:39:02;2.03;;;1.73;;
10703;SDS011;5403;41.730;13.142;2022-11-20T13:41:32;3.05;;;2.13;;
10703;SDS011;5403;41.730;13.142;2022-11-20T13:44:10;2.55;;;2.15;;
10703;SDS011;5403;41.730;13.142;2022-11-20T13:46:41;2.00;;;1.90;;
10703;SDS011;5403;41.730;13.142;2022-11-20T13:49:15;3.15;;;2.30;;
10703;SDS011;5403;41.730;13.142;2022-11-20T13:51:48;6.93;;;2.17;;
10703;SDS011;5403;41.730;13.142;2022-11-20T13:54:27;2.85;;;2.13;;
10703;SDS011;5403;41.730;13.142;2022-11-20T14:06:38;2.50;;;1.98;;
10703;SDS011;5403;41.730;13.142;2022-11-20T14:09:11;1.88;;;1.75;;
10703;SDS011;5403;41.730;13.142;2022-11-20T14:11:45;3.03;;;2.10;;
10703;SDS011;5403;41.730;13.142;2022-11-20T14:14:16;2.40;;;1.92;;
10703;SDS011;5403;41.730;13.142;2022-11-20T14:16:46;2.05;;;1.80;;
10703;SDS011;5403;41.730;13.142;2022-11-20T14:19:28;4.10;;;1.88;;
10703;SDS011;5403;41.730;13.142;2022-11-20T14:22:09;3.22;;;1.80;;
